Time;durP1;ratioP1;P1;durP2;ratioP2;P2;SDS_P1;SDS_P2;PMS_P1;PMS_P2;Temp;Humidity;BMP_temperature;BMP_pressure;BME280_temperature;BME280_humidity;BME280_pressure;Samples;Min_cycle;Max_cycle;Signal;HPM_P1;HPM_P2
2021/06/02 00:00:51;;;;;;;9.60;4.32;;;;;;;14.82;100.00;100733.72;4932906;29;20047;-59
2021/06/02 00:03:25;;;;;;;6.18;4.07;;;;;;;14.56;100.00;100725.16;4933365;29;20314;-59
2021/06/02 00:05:54;;;;;;;4.28;3.75;;;;;;;14.34;100.00;100728.88;4933955;29;20373;-59
2021/06/02 00:08:22;;;;;;;7.82;4.07;;;;;;;14.19;100.00;100724.38;4932316;29;20051;-59
2021/06/02 00:10:49;;;;;;;7.85;4.30;;;;;;;14.16;100.00;100723.91;4933371;29;20055;-58
2021/06/02 00:13:17;;;;;;;5.30;3.35;;;;;;;14.05;100.00;100727.94;4934015;29;20048;-58
2021/06/02 00:15:48;;;;;;;5.82;4.00;;;;;;;14.04;100.00;100726.25;4930452;29;20452;-58
2021/06/02 00:18:16;;;;;;;7.47;4.57;;;;;;;14.06;100.00;100718.84;4934879;29;20047;-58
2021/06/02 00:20:43;;;;;;;8.93;4.60;;;;;;;13.95;100.00;100718.31;4930204;29;20055;-58
2021/06/02 00:23:11;;;;;;;6.28;4.32;;;;;;;13.98;100.00;100725.16;4934747;29;20051;-58
2021/06/02 00:25:39;;;;;;;6.47;4.10;;;;;;;13.93;100.00;100719.50;4927998;29;20055;-58
2021/06/02 00:28:06;;;;;;;5.03;4.03;;;;;;;13.90;100.00;100714.53;4935453;29;20046;-59
2021/06/02 00:30:38;;;;;;;8.88;4.60;;;;;;;13.89;100.00;100716.38;4933651;29;20050;-59
2021/06/02 00:33:08;;;;;;;5.10;4.22;;;;;;;13.85;100.00;100714.22;4936455;29;20055;-59
2021/06/02 00:35:36;;;;;;;6.88;4.13;;;;;;;13.78;100.00;100719.53;4932622;29;20051;-59
2021/06/02 00:38:03;;;;;;;7.00;4.18;;;;;;;13.70;100.00;100717.78;4925054;29;20036;-59
2021/06/02 00:40:35;;;;;;;6.38;3.90;;;;;;;13.63;100.00;100716.84;4925586;29;20459;-59
2021/06/02 00:43:03;;;;;;;5.75;3.85;;;;;;;13.74;100.00;100720.94;4928742;29;20576;-58
2021/06/02 00:45:33;;;;;;;6.45;4.15;;;;;;;13.98;100.00;100722.47;4935422;29;20051;-59
2021/06/02 00:48:01;;;;;;;5.70;4.30;;;;;;;13.96;100.00;100716.44;4928787;29;20439;-58
2021/06/02 00:50:31;;;;;;;10.68;4.60;;;;;;;13.97;100.00;100722.66;4931726;29;20050;-59
2021/06/02 00:52:58;;;;;;;7.43;4.95;;;;;;;13.97;100.00;100714.59;4937480;29;20534;-58
2021/06/02 00:55:26;;;;;;;5.38;4.07;;;;;;;13.84;100.00;100717.97;4932110;29;20422;-59
2021/06/02 00:57:56;;;;;;;6.80;4.35;;;;;;;13.70;100.00;100712.41;4932003;29;20036;-59
2021/06/02 01:00:25;;;;;;;8.00;4.80;;;;;;;13.66;100.00;100708.44;4930942;29;20048;-59
2021/06/02 01:02:53;;;;;;;6.72;4.28;;;;;;;13.42;100.00;100702.34;4932814;29;20060;-59
2021/06/02 01:05:24;;;;;;;5.88;4.47;;;;;;;13.33;100.00;100706.09;4935231;29;20303;-59
2021/06/02 01:07:53;;;;;;;6.53;5.07;;;;;;;13.22;100.00;100701.19;4933806;29;20047;-59
2021/06/02 01:10:21;;;;;;;7.40;5.07;;;;;;;13.17;100.00;100708.91;4935893;29;20055;-59
2021/06/02 01:12:50;;;;;;;8.23;5.35;;;;;;;13.06;100.00;100705.69;4938396;29;20047;-59
2021/06/02 01:15:19;;;;;;;8.52;4.97;;;;;;;12.97;100.00;100698.75;4931462;29;20055;-59
2021/06/02 01:17:47;;;;;;;8.82;5.28;;;;;;;13.12;100.00;100708.66;4931306;29;20039;-58
2021/06/02 01:20:16;;;;;;;5.97;4.40;;;;;;;13.40;100.00;100704.38;4936625;29;20051;-58
2021/06/02 01:22:45;;;;;;;5.28;4.13;;;;;;;13.57;100.00;100710.38;4936071;29;20071;-59
2021/06/02 01:25:14;;;;;;;9.02;4.57;;;;;;;13.60;100.00;100709.19;4931230;28;20047;-59
2021/06/02 01:27:42;;;;;;;10.30;5.47;;;;;;;13.52;100.00;100710.09;4928358;29;20350;-60
2021/06/02 01:30:12;;;;;;;6.13;3.70;;;;;;;13.33;100.00;100711.44;4937432;29;20050;-59
2021/06/02 01:33:00;;;;;;;7.18;4.72;;;;;;;13.21;100.00;100710.22;4936477;29;20058;-60
2021/06/02 01:35:46;;;;;;;5.45;3.97;;;;;;;13.20;100.00;100709.41;4926230;29;20336;-60
2021/06/02 01:38:45;;;;;;;6.85;5.20;;;;;;;13.39;100.00;100715.28;4928621;29;20045;-58
2021/06/02 01:41:21;;;;;;;6.40;4.57;;;;;;;13.30;100.00;100706.47;4926810;29;20040;-59
2021/06/02 01:44:10;;;;;;;6.85;4.90;;;;;;;13.05;100.00;100712.03;4929892;29;20073;-59
2021/06/02 01:47:04;;;;;;;6.47;3.75;;;;;;;13.18;100.00;100705.25;4935044;29;20119;-59
2021/06/02 01:49:51;;;;;;;7.63;4.35;;;;;;;13.27;100.00;100704.16;4932387;29;20074;-58
2021/06/02 01:52:39;;;;;;;5.10;4.05;;;;;;;13.29;100.00;100703.97;4931520;29;20058;-58
2021/06/02 01:55:22;;;;;;;6.90;4.63;;;;;;;13.13;100.00;100708.47;4929666;29;20064;-58
2021/06/02 01:58:09;;;;;;;7.40;3.80;;;;;;;12.97;100.00;100690.72;4935931;29;20067;-58
2021/06/02 02:00:45;;;;;;;9.60;4.53;;;;;;;13.04;100.00;100701.50;4931437;29;20052;-59
2021/06/02 02:03:37;;;;;;;7.97;5.03;;;;;;;13.19;100.00;100701.53;4934454;29;20051;-59
2021/06/02 02:06:34;;;;;;;9.60;6.80;;;;;;;13.13;100.00;100697.75;4924495;29;20047;-59
2021/06/02 02:09:06;;;;;;;5.63;4.53;;;;;;;12.98;100.00;100694.22;4932925;29;20050;-58
2021/06/02 02:11:37;;;;;;;5.43;4.57;;;;;;;12.79;100.00;100695.56;4931093;29;20064;-58
2021/06/02 02:14:49;;;;;;;9.02;5.25;;;;;;;12.50;100.00;100702.47;4931379;29;20051;-59
2021/06/02 02:17:46;;;;;;;9.05;5.88;;;;;;;12.17;100.00;100686.63;4896627;29;20332;-59
2021/06/02 02:20:19;;;;;;;6.00;4.82;;;;;;;12.00;100.00;100704.63;4930833;29;20471;-59
2021/06/02 02:22:59;;;;;;;7.75;5.53;;;;;;;12.15;100.00;100699.34;4933986;29;20077;-59
2021/06/02 02:25:30;;;;;;;6.15;4.80;;;;;;;11.96;100.00;100703.28;4926864;29;20046;-59
2021/06/02 02:28:11;;;;;;;6.57;4.95;;;;;;;11.96;100.00;100697.94;4935148;29;20047;-59
2021/06/02 02:30:45;;;;;;;11.18;5.05;;;;;;;12.12;100.00;100691.66;4933065;29;20387;-59
2021/06/02 02:33:27;;;;;;;10.90;6.63;;;;;;;12.07;100.00;100699.41;4931289;29;20609;-59
2021/06/02 02:36:08;;;;;;;7.47;4.50;;;;;;;12.22;100.00;100700.31;4936545;28;20122;-59
2021/06/02 02:38:55;;;;;;;6.80;5.10;;;;;;;12.43;100.00;100696.16;4934820;29;20692;-59
2021/06/02 02:41:36;;;;;;;6.82;4.85;;;;;;;12.36;100.00;100704.91;4929854;29;20058;-59
2021/06/02 02:44:14;;;;;;;6.55;4.75;;;;;;;12.37;100.00;100703.06;4934932;29;20082;-59
2021/06/02 02:46:49;;;;;;;8.75;5.18;;;;;;;12.29;100.00;100706.63;4929962;29;20056;-59
2021/06/02 02:49:22;;;;;;;7.72;5.18;;;;;;;12.37;100.00;100709.25;4937392;29;20066;-59
2021/06/02 02:51:57;;;;;;;7.05;4.53;;;;;;;12.31;100.00;100701.09;4931674;29;20051;-59
2021/06/02 02:54:29;;;;;;;7.32;5.07;;;;;;;12.21;100.00;100704.00;4934799;29;20038;-59
2021/06/02 02:57:03;;;;;;;7.72;5.05;;;;;;;12.10;100.00;100697.19;4937050;29;20118;-59
2021/06/02 02:59:36;;;;;;;6.65;5.70;;;;;;;11.92;100.00;100704.63;4933224;29;20271;-59
2021/06/02 03:02:09;;;;;;;6.85;5.28;;;;;;;11.76;100.00;100697.50;4933628;29;20058;-58
2021/06/02 03:04:40;;;;;;;9.73;5.60;;;;;;;11.53;100.00;100695.59;4934278;29;20047;-59
2021/06/02 03:07:10;;;;;;;6.55;5.15;;;;;;;11.83;100.00;100706.50;4935140;29;20055;-59
2021/06/02 03:09:41;;;;;;;6.82;5.72;;;;;;;11.80;100.00;100698.84;4936028;29;20052;-58
2021/06/02 03:12:23;;;;;;;8.85;5.22;;;;;;;11.88;100.00;100698.81;4931398;29;20040;-59
2021/06/02 03:14:57;;;;;;;9.88;5.45;;;;;;;12.25;100.00;100693.75;4935732;29;20043;-58
2021/06/02 03:17:30;;;;;;;10.10;7.00;;;;;;;12.12;100.00;100691.66;4935008;29;20043;-59
2021/06/02 03:20:06;;;;;;;7.93;4.78;;;;;;;12.18;100.00;100693.66;4932106;29;20047;-59
2021/06/02 03:22:42;;;;;;;11.30;6.53;;;;;;;12.19;100.00;100684.59;4934325;29;20054;-59
2021/06/02 03:25:18;;;;;;;8.23;6.03;;;;;;;12.27;100.00;100697.94;4932939;29;20431;-59
2021/06/02 03:27:49;;;;;;;;;;;;;;;12.60;100.00;100692.34;4935511;29;20052;-59
2021/06/02 03:30:24;;;;;;;8.98;5.68;;;;;;;12.84;100.00;100683.28;4937130;29;19934;-59
2021/06/02 03:32:59;;;;;;;6.28;5.13;;;;;;;13.18;100.00;100689.16;4935989;29;20040;-59
2021/06/02 03:35:32;;;;;;;8.85;5.00;;;;;;;13.48;100.00;100694.56;4934989;29;20043;-59
2021/06/02 03:38:07;;;;;;;7.63;4.82;;;;;;;13.67;100.00;100693.19;4933417;29;20045;-59
2021/06/02 03:40:41;;;;;;;8.48;4.97;;;;;;;13.63;100.00;100687.34;4930119;29;20048;-59
2021/06/02 03:43:17;;;;;;;7.85;5.32;;;;;;;13.50;100.00;100695.22;4935488;29;20052;-59
2021/06/02 03:45:52;;;;;;;6.95;4.93;;;;;;;13.07;100.00;100691.28;4929896;29;20054;-60
2021/06/02 03:48:27;;;;;;;9.30;4.82;;;;;;;12.85;100.00;100694.81;4935493;29;20048;-59
2021/06/02 03:51:09;;;;;;;8.23;6.00;;;;;;;12.72;100.00;100690.91;4934549;29;20095;-59
2021/06/02 03:53:49;;;;;;;7.60;5.65;;;;;;;12.70;100.00;100687.59;4931550;29;20055;-59
2021/06/02 03:56:28;;;;;;;8.73;5.28;;;;;;;12.70;100.00;100692.94;4932564;29;20134;-59
2021/06/02 03:59:04;;;;;;;8.02;5.85;;;;;;;12.72;100.00;100690.91;4936096;29;20677;-59
2021/06/02 04:01:43;;;;;;;8.30;5.78;;;;;;;13.11;100.00;100688.22;4933010;29;20070;-59
2021/06/02 04:04:14;;;;;;;6.07;4.32;;;;;;;13.58;100.00;100685.22;4935326;29;20035;-59
2021/06/02 04:06:49;;;;;;;6.88;5.00;;;;;;;13.82;100.00;100685.09;4931131;29;20036;-59
2021/06/02 04:09:23;;;;;;;6.88;5.15;;;;;;;13.94;100.00;100688.97;4934945;29;20062;-59
2021/06/02 04:11:55;;;;;;;7.28;4.72;;;;;;;13.99;100.00;100686.56;4933033;29;20039;-59
2021/06/02 04:14:31;;;;;;;6.63;4.63;;;;;;;14.16;100.00;100686.31;4931334;29;20115;-59
2021/06/02 04:17:01;;;;;;;6.70;5.05;;;;;;;14.26;100.00;100697.56;4936691;29;20058;-59
2021/06/02 04:19:29;;;;;;;5.53;4.60;;;;;;;14.19;100.00;100694.84;4936767;29;20378;-59
2021/06/02 04:22:02;;;;;;;9.30;5.10;;;;;;;14.15;100.00;100690.84;4932979;29;20473;-59
2021/06/02 04:24:31;;;;;;;6.93;4.85;;;;;;;13.86;100.00;100686.38;4935351;29;20052;-59
2021/06/02 04:26:59;;;;;;;6.65;5.32;;;;;;;13.83;100.00;100684.06;4931041;29;20078;-59
2021/06/02 04:29:27;;;;;;;10.43;5.60;;;;;;;13.78;100.00;100684.66;4931389;29;20094;-58
2021/06/02 04:31:57;;;;;;;7.10;5.40;;;;;;;13.62;100.00;100684.84;4935801;29;20046;-58
2021/06/02 04:34:27;;;;;;;9.40;5.82;;;;;;;13.59;100.00;100686.03;4929125;29;20062;-59
2021/06/02 04:36:57;;;;;;;7.05;5.22;;;;;;;13.69;100.00;100691.94;4935545;29;20043;-59
2021/06/02 04:39:25;;;;;;;7.45;5.30;;;;;;;13.90;100.00;100687.69;4934853;29;20035;-59
2021/06/02 04:41:54;;;;;;;6.55;5.80;;;;;;;14.28;100.00;100687.47;4931458;29;20470;-59
2021/06/02 04:44:24;;;;;;;7.95;5.65;;;;;;;14.39;100.00;100683.47;4927242;29;20091;-59
2021/06/02 04:46:52;;;;;;;6.72;5.97;;;;;;;13.98;100.00;100698.31;4933569;29;20047;-59
2021/06/02 04:49:20;;;;;;;8.57;5.88;;;;;;;13.98;100.00;100687.56;4936991;29;20051;-59
2021/06/02 04:52:21;;;;;;;7.53;5.07;;;;;;;13.89;100.00;100688.69;4926806;29;20098;-59
2021/06/02 04:55:26;;;;;;;10.93;6.85;;;;;;;14.03;100.00;100692.38;4929400;29;20395;-59
2021/06/02 04:58:19;;;;;;;8.77;5.25;;;;;;;14.11;100.00;100695.75;4931819;29;20047;-59
2021/06/02 05:01:19;;;;;;;8.50;4.95;;;;;;;14.17;100.00;100698.72;4928788;29;20048;-59
2021/06/02 05:04:21;;;;;;;8.80;5.70;;;;;;;14.14;100.00;100697.25;4923381;29;20066;-59
2021/06/02 05:07:17;;;;;;;8.63;6.30;;;;;;;14.03;100.00;100698.56;4931248;29;20099;-59
2021/06/02 05:10:03;;;;;;;7.30;5.47;;;;;;;14.23;100.00;100700.63;4934603;29;20043;-58
2021/06/02 05:13:10;;;;;;;7.03;6.28;;;;;;;14.11;100.00;100698.44;4930694;29;20313;-59
2021/06/02 05:16:01;;;;;;;;;;;;;;;14.17;100.00;100696.03;4927299;29;20055;-59
2021/06/02 05:19:17;;;;;;;9.43;6.30;;;;;;;14.23;100.00;100693.44;4909908;29;19922;-60
2021/06/02 05:22:07;;;;;;;10.43;6.35;;;;;;;14.18;100.00;100698.53;4928702;29;20335;-59
2021/06/02 05:25:09;;;;;;;6.50;5.20;;;;;;;14.29;100.00;100697.22;4927359;29;20055;-59
2021/06/02 05:28:01;;;;;;;9.32;6.03;;;;;;;14.95;100.00;100694.31;4938340;29;20048;-58
2021/06/02 05:31:22;;;;;;;9.35;5.63;;;;;;;15.49;100.00;100700.03;4925458;29;20439;-58
2021/06/02 05:34:42;;;;;;;7.57;5.80;;;;;;;15.91;100.00;100700.09;4928541;29;20036;-58
2021/06/02 05:37:29;;;;;;;11.63;6.40;;;;;;;16.41;100.00;100705.19;4926170;29;20343;-59
2021/06/02 05:40:25;;;;;;;9.55;5.95;;;;;;;16.99;100.00;100708.16;4927948;29;20043;-58
2021/06/02 05:43:32;;;;;;;8.70;5.68;;;;;;;17.90;100.00;100708.38;4927101;29;20439;-59
2021/06/02 05:46:18;;;;;;;7.80;5.50;;;;;;;18.91;100.00;100698.66;4929337;29;20324;-58
2021/06/02 05:49:22;;;;;;;7.18;5.20;;;;;;;19.17;100.00;100699.47;4935784;29;20039;-59
2021/06/02 05:52:00;;;;;;;6.70;4.85;;;;;;;19.57;100.00;100707.16;4933641;29;20350;-58
2021/06/02 05:55:07;;;;;;;5.57;4.80;;;;;;;20.16;100.00;100708.56;4930250;29;20431;-58
2021/06/02 05:57:57;;;;;;;8.90;5.32;;;;;;;20.40;100.00;100709.47;4934323;29;20044;-59
2021/06/02 06:01:04;;;;;;;7.78;5.30;;;;;;;20.78;100.00;100700.16;4924538;29;20107;-59
2021/06/02 06:04:11;;;;;;;7.45;4.47;;;;;;;21.30;100.00;100704.91;4939143;29;20043;-58
2021/06/02 06:06:42;;;;;;;10.50;6.32;;;;;;;21.48;100.00;100709.38;4932457;29;20106;-59
2021/06/02 06:09:45;;;;;;;6.47;4.95;;;;;;;21.74;100.00;100701.78;4929222;29;20485;-59
2021/06/02 06:12:58;;;;;;;6.40;5.17;;;;;;;21.40;100.00;100707.03;4934440;29;20063;-59
2021/06/02 06:16:03;;;;;;;7.75;5.00;;;;;;;21.43;100.00;100701.09;4931067;29;20059;-59
2021/06/02 06:18:44;;;;;;;10.10;6.10;;;;;;;20.82;100.00;100701.34;4931758;29;20047;-59
2021/06/02 06:21:51;;;;;;;7.93;5.35;;;;;;;21.02;100.00;100698.28;4935368;29;20355;-59
2021/06/02 06:24:21;;;;;;;7.20;4.85;;;;;;;21.25;100.00;100692.03;4932907;29;20046;-59
2021/06/02 06:26:54;;;;;;;7.70;5.90;;;;;;;21.38;100.00;100703.69;4933276;29;20118;-59
2021/06/02 06:29:28;;;;;;;8.02;4.82;;;;;;;21.05;100.00;100699.72;4938911;29;20300;-58
2021/06/02 06:31:56;;;;;;;6.45;5.07;;;;;;;21.06;100.00;100695.94;4934559;29;20048;-60
2021/06/02 06:34:27;;;;;;;8.27;5.47;;;;;;;21.23;100.00;100696.06;4932680;29;20485;-59
2021/06/02 06:36:55;;;;;;;8.73;5.80;;;;;;;21.28;100.00;100688.03;4936386;29;20047;-59
2021/06/02 06:39:29;;;;;;;8.82;5.22;;;;;;;21.71;100.00;100688.69;4935713;29;20289;-59
2021/06/02 06:41:57;;;;;;;11.13;5.68;;;;;;;21.67;100.00;100689.19;4935783;29;20424;-58
2021/06/02 06:44:27;;;;;;;8.50;4.85;;;;;;;21.39;100.00;100680.91;4932836;29;20047;-59
2021/06/02 06:46:56;;;;;;;8.00;5.28;;;;;;;21.31;100.00;100688.38;4934558;29;20051;-59
2021/06/02 06:49:24;;;;;;;7.07;5.18;;;;;;;21.51;100.00;100681.72;4936955;29;20051;-59
2021/06/02 06:51:52;;;;;;;7.82;5.35;;;;;;;21.39;100.00;100683.63;4934335;29;20046;-59
2021/06/02 06:54:22;;;;;;;7.90;5.00;;;;;;;21.62;100.00;100680.91;4931110;29;20091;-59
2021/06/02 06:56:50;;;;;;;6.13;4.32;;;;;;;21.83;100.00;100679.44;4936887;29;20047;-59
2021/06/02 06:59:19;;;;;;;6.20;4.75;;;;;;;22.74;100.00;100682.41;4932361;29;20047;-59
2021/06/02 07:01:48;;;;;;;7.65;5.07;;;;;;;22.64;100.00;100677.63;4935201;29;20102;-59
2021/06/02 07:04:16;;;;;;;6.18;4.93;;;;;;;22.51;100.00;100667.88;4933229;29;20343;-58
2021/06/02 07:06:44;;;;;;;8.98;5.25;;;;;;;22.46;100.00;100670.53;4934200;29;20095;-59
2021/06/02 07:09:13;;;;;;;9.65;5.35;;;;;;;22.75;100.00;100674.00;4936541;29;20126;-59
2021/06/02 07:11:41;;;;;;;8.80;5.40;;;;;;;22.86;100.00;100669.53;4935585;29;20110;-59
2021/06/02 07:14:09;;;;;;;6.70;5.93;;;;;;;22.92;100.00;100679.44;4930954;29;20036;-59
2021/06/02 07:16:38;;;;;;;8.85;6.47;;;;;;;23.59;100.00;100683.13;4940580;29;20047;-60
2021/06/02 07:19:08;;;;;;;4.78;4.30;;;;;;;23.32;100.00;100678.41;4925720;29;20250;-59
2021/06/02 07:21:38;;;;;;;6.72;5.13;;;;;;;23.21;100.00;100682.06;4933701;29;20058;-60
2021/06/02 07:24:10;;;;;;;6.75;4.68;;;;;;;23.73;100.00;100686.31;4929100;29;20048;-59
2021/06/02 07:26:40;;;;;;;7.40;4.50;;;;;;;24.63;100.00;100696.81;4932459;29;20055;-59
2021/06/02 07:29:24;;;;;;;7.40;4.25;;;;;;;24.88;100.00;100687.19;4929115;29;20130;-60
2021/06/02 07:31:53;;;;;;;6.63;5.18;;;;;;;25.10;100.00;100687.03;4934188;29;20048;-59
2021/06/02 07:34:22;;;;;;;6.22;4.78;;;;;;;25.58;100.00;100689.78;4932104;29;20036;-59
2021/06/02 07:36:50;;;;;;;6.47;4.05;;;;;;;24.90;100.00;100685.81;4932626;29;20399;-58
2021/06/02 07:39:18;;;;;;;5.85;4.30;;;;;;;23.69;100.00;100685.97;4936863;29;20305;-58
2021/06/02 07:41:45;;;;;;;4.65;3.83;;;;;;;24.63;100.00;100693.28;4932760;29;20046;-59
2021/06/02 07:44:12;;;;;;;7.70;4.50;;;;;;;24.26;100.00;100692.09;4929479;29;20137;-58
2021/06/02 07:46:40;;;;;;;6.47;4.43;;;;;;;25.06;100.00;100686.78;4941756;29;20050;-59
2021/06/02 07:49:08;;;;;;;5.10;3.92;;;;;;;25.35;100.00;100689.16;4936313;29;20070;-59
2021/06/02 07:51:37;;;;;;;6.47;4.22;;;;;;;24.20;100.00;100698.56;4934666;29;20058;-59
2021/06/02 07:54:06;;;;;;;5.25;3.92;;;;;;;25.04;100.00;100691.66;4932156;29;20051;-59
2021/06/02 07:56:34;;;;;;;6.47;4.15;;;;;;;25.81;100.00;100684.97;4934281;29;20054;-58
2021/06/02 07:59:02;;;;;;;7.15;4.05;;;;;;;25.89;100.00;100692.66;4936357;29;20441;-59
2021/06/02 08:01:29;;;;;;;9.23;4.07;;;;;;;24.81;100.00;100689.28;4934335;29;20047;-58
2021/06/02 08:03:57;;;;;;;4.90;3.83;;;;;;;25.19;100.00;100695.56;4929360;29;20518;-59
2021/06/02 08:06:24;;;;;;;5.53;4.15;;;;;;;25.53;100.00;100684.28;4933964;29;20442;-59
2021/06/02 08:08:53;;;;;;;4.38;3.97;;;;;;;26.07;100.00;100686.72;4933522;29;20039;-59
2021/06/02 08:11:21;;;;;;;4.03;3.63;;;;;;;26.77;100.00;100682.69;4936196;29;20047;-59
2021/06/02 08:13:48;;;;;;;6.07;3.70;;;;;;;26.19;100.00;100686.44;4928930;29;20052;-59
2021/06/02 08:16:15;;;;;;;5.40;3.53;;;;;;;25.95;100.00;100694.31;4937315;29;20043;-59
2021/06/02 08:18:43;;;;;;;8.20;4.03;;;;;;;26.16;100.00;100694.38;4931277;29;20044;-59
2021/06/02 08:21:11;;;;;;;4.85;3.47;;;;;;;26.44;100.00;100693.88;4931989;29;20047;-59
2021/06/02 08:23:38;;;;;;;5.55;3.97;;;;;;;26.84;100.00;100699.66;4934159;29;20386;-59
2021/06/02 08:26:08;;;;;;;6.95;3.70;;;;;;;26.80;100.00;100699.38;4929234;29;20106;-59
2021/06/02 08:28:35;;;;;;;5.80;3.85;;;;;;;26.68;100.00;100700.72;4933556;29;20048;-59
2021/06/02 08:31:03;;;;;;;5.28;3.40;;;;;;;26.90;100.00;100708.69;4926266;29;20052;-59
2021/06/02 08:33:30;;;;;;;4.65;3.80;;;;;;;26.84;94.95;100707.06;4930984;28;20106;-58
2021/06/02 08:35:58;;;;;;;5.68;3.30;;;;;;;26.65;72.29;100702.09;4932609;29;20204;-58
2021/06/02 08:38:27;;;;;;;4.05;3.45;;;;;;;26.56;93.86;100704.53;4932318;29;20106;-58
2021/06/02 08:40:54;;;;;;;5.75;3.17;;;;;;;26.27;73.49;100696.88;4934975;29;20054;-61
2021/06/02 08:43:23;;;;;;;7.00;3.40;;;;;;;27.28;97.35;100698.22;4932472;29;20044;-58
2021/06/02 08:45:51;;;;;;;5.72;3.30;;;;;;;27.69;66.15;100698.09;4928981;29;20051;-58
2021/06/02 08:48:18;;;;;;;5.43;2.95;;;;;;;27.49;81.93;100683.38;4932574;29;20403;-60
2021/06/02 08:50:45;;;;;;;5.07;3.45;;;;;;;27.22;68.80;100680.13;4916735;29;20044;-60
2021/06/02 08:53:16;;;;;;;5.10;3.15;;;;;;;27.21;88.41;100678.50;4934197;29;20296;-60
2021/06/02 08:55:45;;;;;;;3.85;3.45;;;;;;;27.73;100.00;100677.22;4929525;29;20047;-60
2021/06/02 08:58:17;;;;;;;4.93;2.95;;;;;;;27.34;79.66;100680.63;4931201;29;20714;-60
2021/06/02 09:00:46;;;;;;;2.90;2.47;;;;;;;27.46;60.04;100686.66;4933668;29;20067;-60
2021/06/02 09:03:14;;;;;;;4.75;3.15;;;;;;;26.70;61.42;100677.47;4932240;29;20257;-61
2021/06/02 09:05:42;;;;;;;6.18;3.08;;;;;;;26.65;68.43;100677.44;4931303;29;20043;-59
2021/06/02 09:08:15;;;;;;;3.45;2.75;;;;;;;26.58;70.42;100674.16;4931203;29;20459;-60
2021/06/02 09:10:44;;;;;;;4.85;2.70;;;;;;;26.70;64.07;100669.25;4934855;29;20043;-60
2021/06/02 09:13:16;;;;;;;4.00;2.88;;;;;;;27.31;65.48;100670.25;4934268;29;20047;-60
2021/06/02 09:15:46;;;;;;;4.55;3.05;;;;;;;28.57;100.00;100665.44;4929465;29;20047;-60
2021/06/02 09:18:15;;;;;;;3.92;3.08;;;;;;;29.09;62.15;100678.69;4933873;29;20044;-60
2021/06/02 09:20:44;;;;;;;3.53;2.97;;;;;;;28.65;59.67;100675.00;4930686;29;20098;-60
2021/06/02 09:23:33;;;;;;;3.75;2.80;;;;;;;28.68;59.81;100666.22;4929411;29;20051;-60
2021/06/02 09:26:15;;;;;;;3.15;2.85;;;;;;;28.91;56.97;100681.09;4929873;29;20047;-60
2021/06/02 09:28:58;;;;;;;4.85;2.50;;;;;;;28.61;53.21;100669.25;4932694;29;20171;-60
2021/06/02 09:31:30;;;;;;;2.90;2.63;;;;;;;28.96;61.90;100675.56;4930613;29;20040;-60
2021/06/02 09:34:02;;;;;;;7.38;2.80;;;;;;;29.48;47.08;100673.06;4934612;29;20048;-60
2021/06/02 09:36:32;;;;;;;2.75;2.42;;;;;;;29.55;53.62;100664.47;4932010;29;20333;-60
2021/06/02 09:39:01;;;;;;;4.20;2.58;;;;;;;28.89;60.24;100671.50;4935007;29;20056;-60
2021/06/02 09:41:29;;;;;;;4.80;2.50;;;;;;;28.10;42.91;100662.22;4928748;29;20379;-60
2021/06/02 09:43:57;;;;;;;4.88;2.80;;;;;;;28.03;44.89;100664.47;4926414;29;20075;-60
2021/06/02 09:46:25;;;;;;;3.38;2.83;;;;;;;27.96;46.73;100663.94;4931085;29;20036;-60
2021/06/02 09:49:01;;;;;;;4.25;3.10;;;;;;;28.62;58.89;100664.59;4933023;29;20039;-60
2021/06/02 09:51:33;;;;;;;4.32;2.50;;;;;;;28.87;48.42;100665.47;4936738;29;20032;-60
2021/06/02 09:54:01;;;;;;;4.40;2.97;;;;;;;28.55;45.03;100664.09;4931823;29;20114;-60
2021/06/02 09:56:37;;;;;;;5.65;2.60;;;;;;;29.13;56.57;100657.78;4934424;29;20042;-60
2021/06/02 09:59:08;;;;;;;3.42;2.75;;;;;;;29.78;41.69;100662.75;4937256;29;20082;-60
2021/06/02 10:01:57;;;;;;;3.42;2.58;;;;;;;29.67;43.26;100662.09;4935510;29;20047;-60
2021/06/02 10:04:31;;;;;;;6.57;2.88;;;;;;;29.27;51.04;100658.72;4933676;29;20036;-60
2021/06/02 10:06:59;;;;;;;5.07;2.73;;;;;;;29.13;42.44;100658.59;4938133;29;20051;-60
2021/06/02 10:09:28;;;;;;;3.50;2.33;;;;;;;29.28;47.03;100659.56;4933262;29;20295;-60
2021/06/02 10:11:57;;;;;;;4.00;2.72;;;;;;;29.36;41.33;100657.00;4935702;29;20333;-60
2021/06/02 10:14:25;;;;;;;3.10;2.50;;;;;;;29.11;41.58;100660.00;4937751;29;20346;-60
2021/06/02 10:16:52;;;;;;;4.10;2.60;;;;;;;29.32;55.02;100660.63;4936108;29;20400;-60
2021/06/02 10:19:40;;;;;;;3.35;2.83;;;;;;;29.99;41.91;100646.81;4933268;29;20040;-60
2021/06/02 10:22:22;;;;;;;5.05;3.03;;;;;;;29.49;42.44;100652.69;4932412;29;20052;-60
2021/06/02 10:24:51;;;;;;;3.55;2.50;;;;;;;29.23;39.04;100651.34;4934523;29;20103;-60
2021/06/02 10:27:19;;;;;;;4.43;2.45;;;;;;;30.26;43.96;100650.81;4935371;29;20048;-60
2021/06/02 10:29:48;;;;;;;5.70;2.47;;;;;;;30.33;48.82;100645.72;4936682;29;20051;-60
2021/06/02 10:32:17;;;;;;;5.25;2.63;;;;;;;30.88;50.63;100655.28;4935871;29;20066;-60
2021/06/02 10:34:46;;;;;;;5.45;2.80;;;;;;;29.87;45.30;100654.72;4930325;29;20580;-60
2021/06/02 10:37:16;;;;;;;3.03;2.17;;;;;;;30.16;43.58;100645.47;4938375;29;21392;-57
2021/06/02 10:39:46;;;;;;;3.65;2.47;;;;;;;30.04;45.05;100645.94;4930728;29;20059;-60
2021/06/02 10:42:20;;;;;;;5.47;2.67;;;;;;;30.62;42.85;100638.41;4930900;29;20456;-60
2021/06/02 10:44:53;;;;;;;3.72;2.92;;;;;;;30.53;56.86;100650.09;4939125;29;20044;-60
2021/06/02 10:47:25;;;;;;;4.95;2.65;;;;;;;31.48;47.19;100646.13;4931976;29;20036;-60
2021/06/02 10:49:54;;;;;;;3.25;2.72;;;;;;;31.13;45.48;100645.75;4931027;29;20452;-59
2021/06/02 10:52:39;;;;;;;2.58;2.20;;;;;;;29.28;39.29;100643.06;4934522;29;20098;-59
2021/06/02 10:55:32;;;;;;;5.80;2.75;;;;;;;29.72;43.50;100647.44;4930282;29;20471;-58
2021/06/02 10:58:33;;;;;;;5.43;3.00;;;;;;;29.78;39.22;100646.25;4933624;29;20059;-59
2021/06/02 11:01:12;;;;;;;3.00;2.58;;;;;;;30.19;42.93;100645.66;4875542;29;20053;-59
2021/06/02 11:03:42;;;;;;;2.80;2.60;;;;;;;30.71;41.27;100644.84;4872209;29;20065;-59
2021/06/02 11:06:35;;;;;;;3.17;2.78;;;;;;;31.29;43.83;100645.41;4899981;29;20059;-58
2021/06/02 11:09:24;;;;;;;3.65;2.20;;;;;;;30.35;40.36;100646.25;4927656;29;20099;-59
2021/06/02 11:12:05;;;;;;;2.80;2.45;;;;;;;30.77;41.32;100637.31;4928444;29;20055;-59
2021/06/02 11:14:32;;;;;;;5.10;3.10;;;;;;;30.90;53.11;100648.34;4936994;29;20066;-59
2021/06/02 11:17:17;;;;;;;4.88;2.47;;;;;;;31.33;41.26;100640.91;4934535;29;20052;-59
2021/06/02 11:19:50;;;;;;;3.90;2.70;;;;;;;30.55;51.47;100647.88;4931498;29;20051;-59
2021/06/02 11:22:21;;;;;;;2.50;2.30;;;;;;;31.12;50.86;100644.09;4941966;29;20043;-59
2021/06/02 11:24:58;;;;;;;4.07;2.90;;;;;;;30.34;38.39;100641.06;4929302;29;20099;-59
2021/06/02 11:27:33;;;;;;;2.80;2.50;;;;;;;30.72;48.61;100646.47;4937987;29;20462;-58
2021/06/02 11:30:17;;;;;;;2.97;2.50;;;;;;;30.74;44.64;100635.97;4936184;29;20292;-59
2021/06/02 11:32:55;;;;;;;5.75;2.88;;;;;;;30.18;44.47;100641.31;4936297;29;20302;-59
2021/06/02 11:36:08;;;;;;;4.85;2.67;;;;;;;30.68;47.13;100645.47;4929908;29;20051;-59
2021/06/02 11:38:41;;;;;;;3.00;2.70;;;;;;;30.73;41.18;100643.44;4932140;29;20054;-58
2021/06/02 11:41:10;;;;;;;5.25;3.17;;;;;;;31.36;41.69;100643.91;4933249;29;20040;-59
2021/06/02 11:43:58;;;;;;;6.30;2.95;;;;;;;31.52;43.81;100646.31;4933444;29;20348;-59
2021/06/02 11:46:55;;;;;;;2.88;2.67;;;;;;;31.10;43.20;100646.34;4933582;29;20098;-59
2021/06/02 11:49:25;;;;;;;;;;;;;;;31.92;47.61;100646.56;4935918;29;20588;-59
2021/06/02 11:51:55;;;;;;;3.20;2.60;;;;;;;32.25;54.13;100654.63;4933790;29;19926;-59
2021/06/02 11:54:24;;;;;;;3.10;2.58;;;;;;;31.36;51.71;100649.41;4929751;29;20062;-59
2021/06/02 11:56:52;;;;;;;3.22;2.80;;;;;;;31.20;49.96;100642.56;4933324;29;20052;-59
2021/06/02 11:59:20;;;;;;;4.93;2.80;;;;;;;31.25;39.85;100639.72;4937747;29;20055;-59